sensor_id;sensor_type;location;lat;lon;timestamp;pressure;altitude;pressure_sealevel;temperature;humidity
18749;BME280;9503;53.560;10.246;2023-02-28T07:02:32;102582.50;;;2.57;100.00
18749;BME280;9503;53.560;10.246;2023-02-28T07:04:59;102585.41;;;3.14;100.00
18749;BME280;9503;53.560;10.246;2023-02-28T07:07:25;102580.09;;;3.20;100.00
18749;BME280;9503;53.560;10.246;2023-02-28T07:09:52;102583.53;;;2.66;100.00
18749;BME280;9503;53.560;10.246;2023-02-28T07:12:19;102591.06;;;1.97;100.00
18749;BME280;9503;53.560;10.246;2023-02-28T07:14:46;102587.03;;;1.32;100.00
18749;BME280;9503;53.560;10.246;2023-02-28T07:17:13;102590.94;;;0.78;100.00
18749;BME280;9503;53.560;10.246;2023-02-28T07:19:41;102595.47;;;0.74;100.00
18749;BME280;9503;53.560;10.246;2023-02-28T07:22:08;102597.09;;;1.46;100.00
18749;BME280;9503;53.560;10.246;2023-02-28T07:24:34;102588.03;;;2.22;100.00
18749;BME280;9503;53.560;10.246;2023-02-28T07:27:01;102594.41;;;2.12;100.00
18749;BME280;9503;53.560;10.246;2023-02-28T07:29:28;102600.84;;;1.94;100.00
18749;BME280;9503;53.560;10.246;2023-02-28T07:31:55;102603.13;;;2.60;100.00
18749;BME280;9503;53.560;10.246;2023-02-28T07:34:23;102608.41;;;3.31;100.00
18749;BME280;9503;53.560;10.246;2023-02-28T07:36:54;102611.81;;;3.79;100.00
18749;BME280;9503;53.560;10.246;2023-02-28T07:39:21;102613.19;;;4.49;100.00
18749;BME280;9503;53.560;10.246;2023-02-28T07:41:48;102619.03;;;4.98;100.00
18749;BME280;9503;53.560;10.246;2023-02-28T07:44:14;102622.44;;;5.41;100.00
18749;BME280;9503;53.560;10.246;2023-02-28T07:46:41;102626.38;;;5.80;100.00
18749;BME280;9503;53.560;10.246;2023-02-28T07:49:08;102625.59;;;6.25;100.00
18749;BME280;9503;53.560;10.246;2023-02-28T07:51:34;102623.91;;;6.43;100.00
18749;BME280;9503;53.560;10.246;2023-02-28T07:54:03;102627.88;;;6.67;97.91
18749;BME280;9503;53.560;10.246;2023-02-28T07:56:29;102624.78;;;6.52;94.77
18749;BME280;9503;53.560;10.246;2023-02-28T07:58:56;102627.22;;;6.42;94.98
18749;BME280;9503;53.560;10.246;2023-02-28T08:01:23;102628.72;;;6.31;94.86
18749;BME280;9503;53.560;10.246;2023-02-28T08:03:49;102634.75;;;6.05;97.34
18749;BME280;9503;53.560;10.246;2023-02-28T08:06:18;102640.75;;;5.89;97.83
18749;BME280;9503;53.560;10.246;2023-02-28T08:08:45;102635.78;;;5.64;96.83
18749;BME280;9503;53.560;10.246;2023-02-28T08:11:14;102633.69;;;5.51;98.00
18749;BME280;9503;53.560;10.246;2023-02-28T08:13:41;102630.53;;;5.63;96.98
18749;BME280;9503;53.560;10.246;2023-02-28T08:16:09;102637.94;;;5.18;94.01
18749;BME280;9503;53.560;10.246;2023-02-28T08:18:36;102639.56;;;5.09;95.08
18749;BME280;9503;53.560;10.246;2023-02-28T08:21:06;102641.09;;;4.49;96.47
18749;BME280;9503;53.560;10.246;2023-02-28T08:23:33;102638.94;;;4.94;96.79
18749;BME280;9503;53.560;10.246;2023-02-28T08:26:00;102642.09;;;5.00;96.43
18749;BME280;9503;53.560;10.246;2023-02-28T08:28:28;102639.81;;;4.61;96.04
18749;BME280;9503;53.560;10.246;2023-02-28T08:30:55;102637.53;;;4.07;96.91
18749;BME280;9503;53.560;10.246;2023-02-28T08:33:22;102642.44;;;4.21;99.97
18749;BME280;9503;53.560;10.246;2023-02-28T08:35:52;102635.22;;;4.17;100.00
18749;BME280;9503;53.560;10.246;2023-02-28T08:38:18;102641.81;;;3.99;100.00
18749;BME280;9503;53.560;10.246;2023-02-28T08:40:45;102647.47;;;3.81;100.00
18749;BME280;9503;53.560;10.246;2023-02-28T08:43:12;102643.16;;;3.64;100.00
18749;BME280;9503;53.560;10.246;2023-02-28T08:45:40;102644.81;;;3.64;100.00
18749;BME280;9503;53.560;10.246;2023-02-28T08:48:07;102644.78;;;3.79;100.00
18749;BME280;9503;53.560;10.246;2023-02-28T08:50:33;102645.03;;;3.58;100.00
18749;BME280;9503;53.560;10.246;2023-02-28T08:53:00;102648.25;;;3.48;100.00
18749;BME280;9503;53.560;10.246;2023-02-28T08:55:26;102650.47;;;3.45;100.00
18749;BME280;9503;53.560;10.246;2023-02-28T08:57:53;102642.84;;;3.45;100.00
18749;BME280;9503;53.560;10.246;2023-02-28T09:00:21;102650.78;;;3.48;99.61
18749;BME280;9503;53.560;10.246;2023-02-28T09:02:49;102648.91;;;3.54;98.84
18749;BME280;9503;53.560;10.246;2023-02-28T09:05:16;102653.38;;;3.57;95.83
18749;BME280;9503;53.560;10.246;2023-02-28T09:07:42;102651.09;;;3.67;95.33
18749;BME280;9503;53.560;10.246;2023-02-28T09:10:10;102653.97;;;3.70;95.44
18749;BME280;9503;53.560;10.246;2023-02-28T09:12:36;102653.13;;;3.78;94.47
18749;BME280;9503;53.560;10.246;2023-02-28T09:15:04;102649.78;;;3.86;92.58
18749;BME280;9503;53.560;10.246;2023-02-28T09:17:31;102651.06;;;3.99;91.74
18749;BME280;9503;53.560;10.246;2023-02-28T09:19:59;102652.94;;;4.08;90.61
18749;BME280;9503;53.560;10.246;2023-02-28T09:22:25;102654.78;;;4.18;89.29
18749;BME280;9503;53.560;10.246;2023-02-28T09:24:52;102657.50;;;4.20;86.69
18749;BME280;9503;53.560;10.246;2023-02-28T09:27:19;102661.88;;;4.29;84.58
18749;BME280;9503;53.560;10.246;2023-02-28T09:29:45;102656.06;;;4.30;82.75
18749;BME280;9503;53.560;10.246;2023-02-28T09:32:12;102656.44;;;4.66;82.40
18749;BME280;9503;53.560;10.246;2023-02-28T09:34:38;102663.47;;;4.44;79.32
18749;BME280;9503;53.560;10.246;2023-02-28T09:37:06;102660.56;;;4.57;75.92
18749;BME280;9503;53.560;10.246;2023-02-28T09:39:33;102663.22;;;4.83;75.96
18749;BME280;9503;53.560;10.246;2023-02-28T09:42:02;102661.03;;;4.86;73.90
18749;BME280;9503;53.560;10.246;2023-02-28T09:44:33;102665.91;;;5.18;72.84
18749;BME280;9503;53.560;10.246;2023-02-28T09:47:07;102664.66;;;5.65;71.19
18749;BME280;9503;53.560;10.246;2023-02-28T09:49:38;102667.84;;;6.14;69.38
18749;BME280;9503;53.560;10.246;2023-02-28T09:52:10;102675.94;;;6.19;67.17
18749;BME280;9503;53.560;10.246;2023-02-28T09:54:38;102672.03;;;6.31;65.05
18749;BME280;9503;53.560;10.246;2023-02-28T09:57:08;102680.63;;;6.76;65.27
18749;BME280;9503;53.560;10.246;2023-02-28T09:59:44;102671.47;;;6.78;63.50
18749;BME280;9503;53.560;10.246;2023-02-28T10:02:33;102676.91;;;6.64;62.73
18749;BME280;9503;53.560;10.246;2023-02-28T10:05:09;102670.03;;;6.63;63.01
18749;BME280;9503;53.560;10.246;2023-02-28T10:07:58;102676.81;;;6.90;62.64
18749;BME280;9503;53.560;10.246;2023-02-28T10:10:29;102661.94;;;7.31;61.02
18749;BME280;9503;53.560;10.246;2023-02-28T10:13:00;102672.66;;;7.45;60.85
18749;BME280;9503;53.560;10.246;2023-02-28T10:15:30;102668.41;;;7.73;58.56
18749;BME280;9503;53.560;10.246;2023-02-28T10:18:01;102663.72;;;7.97;58.02
18749;BME280;9503;53.560;10.246;2023-02-28T10:20:30;102660.41;;;7.33;59.16
18749;BME280;9503;53.560;10.246;2023-02-28T10:23:04;102663.00;;;7.70;59.82
18749;BME280;9503;53.560;10.246;2023-02-28T10:25:37;102663.06;;;8.18;58.76
18749;BME280;9503;53.560;10.246;2023-02-28T10:28:10;102656.81;;;7.96;58.46
18749;BME280;9503;53.560;10.246;2023-02-28T10:30:39;102664.84;;;8.19;59.23
18749;BME280;9503;53.560;10.246;2023-02-28T10:33:17;102668.56;;;6.92;60.41
18749;BME280;9503;53.560;10.246;2023-02-28T10:35:45;102665.50;;;7.33;59.47
18749;BME280;9503;53.560;10.246;2023-02-28T10:38:18;102666.25;;;7.59;59.38
18749;BME280;9503;53.560;10.246;2023-02-28T10:40:44;102660.97;;;7.39;59.15
18749;BME280;9503;53.560;10.246;2023-02-28T10:43:19;102661.16;;;7.78;58.42
18749;BME280;9503;53.560;10.246;2023-02-28T10:45:57;102658.19;;;7.73;58.24
18749;BME280;9503;53.560;10.246;2023-02-28T10:48:30;102659.13;;;8.41;56.74
18749;BME280;9503;53.560;10.246;2023-02-28T10:50:57;102662.72;;;8.82;55.76
18749;BME280;9503;53.560;10.246;2023-02-28T10:53:31;102657.81;;;9.14;55.12
18749;BME280;9503;53.560;10.246;2023-02-28T10:56:00;102660.34;;;9.24;53.05
18749;BME280;9503;53.560;10.246;2023-02-28T10:58:30;102664.91;;;8.88;53.11
18749;BME280;9503;53.560;10.246;2023-02-28T11:00:58;102667.66;;;9.40;52.28
18749;BME280;9503;53.560;10.246;2023-02-28T11:03:30;102655.28;;;9.55;51.35
18749;BME280;9503;53.560;10.246;2023-02-28T11:05:57;102662.91;;;9.75;51.35
18749;BME280;9503;53.560;10.246;2023-02-28T11:08:24;102666.63;;;9.68;51.45
18749;BME280;9503;53.560;10.246;2023-02-28T11:10:56;102659.41;;;10.05;51.02
18749;BME280;9503;53.560;10.246;2023-02-28T11:13:27;102666.88;;;9.92;50.04
18749;BME280;9503;53.560;10.246;2023-02-28T11:15:57;102656.63;;;9.00;52.01
18749;BME280;9503;53.560;10.246;2023-02-28T11:18:27;102661.19;;;8.26;53.94
18749;BME280;9503;53.560;10.246;2023-02-28T11:20:57;102657.00;;;8.08;54.26
18749;BME280;9503;53.560;10.246;2023-02-28T11:23:26;102657.97;;;8.18;55.24
18749;BME280;9503;53.560;10.246;2023-02-28T11:25:58;102658.34;;;8.42;55.01
18749;BME280;9503;53.560;10.246;2023-02-28T11:28:28;102659.34;;;9.22;54.44
18749;BME280;9503;53.560;10.246;2023-02-28T11:31:04;102646.03;;;9.16;53.74
18749;BME280;9503;53.560;10.246;2023-02-28T11:33:31;102655.00;;;9.72;53.58
18749;BME280;9503;53.560;10.246;2023-02-28T11:36:01;102649.34;;;9.66;52.92
18749;BME280;9503;53.560;10.246;2023-02-28T11:38:28;102646.28;;;9.60;52.10
18749;BME280;9503;53.560;10.246;2023-02-28T11:41:09;102645.34;;;10.00;52.29
18749;BME280;9503;53.560;10.246;2023-02-28T11:43:54;102639.84;;;9.95;50.64
18749;BME280;9503;53.560;10.246;2023-02-28T11:46:31;102641.88;;;9.89;50.42
18749;BME280;9503;53.560;10.246;2023-02-28T11:49:12;102640.22;;;10.00;50.83
18749;BME280;9503;53.560;10.246;2023-02-28T11:51:47;102634.84;;;10.39;50.50
18749;BME280;9503;53.560;10.246;2023-02-28T11:54:35;102634.88;;;10.19;51.02
18749;BME280;9503;53.560;10.246;2023-02-28T11:57:21;102627.94;;;9.76;51.11
18749;BME280;9503;53.560;10.246;2023-02-28T12:00:03;102633.25;;;10.09;50.60
18749;BME280;9503;53.560;10.246;2023-02-28T12:02:42;102620.84;;;10.04;51.33
18749;BME280;9503;53.560;10.246;2023-02-28T12:05:24;102614.44;;;9.05;51.61
18749;BME280;9503;53.560;10.246;2023-02-28T12:08:04;102612.84;;;9.68;52.54
18749;BME280;9503;53.560;10.246;2023-02-28T12:10:35;102609.47;;;9.90;51.18
18749;BME280;9503;53.560;10.246;2023-02-28T12:13:16;102607.13;;;9.51;52.24
18749;BME280;9503;53.560;10.246;2023-02-28T12:16:06;102604.28;;;9.68;52.08
18749;BME280;9503;53.560;10.246;2023-02-28T12:18:51;102595.75;;;8.96;52.84
18749;BME280;9503;53.560;10.246;2023-02-28T12:21:31;102596.31;;;8.53;52.98
18749;BME280;9503;53.560;10.246;2023-02-28T12:24:24;102588.69;;;9.45;52.08
18749;BME280;9503;53.560;10.246;2023-02-28T12:26:57;102590.38;;;9.96;52.06
18749;BME280;9503;53.560;10.246;2023-02-28T12:29:29;102577.72;;;9.88;51.13
18749;BME280;9503;53.560;10.246;2023-02-28T12:32:01;102581.22;;;9.78;50.85
18749;BME280;9503;53.560;10.246;2023-02-28T12:34:33;102573.88;;;9.93;52.19
18749;BME280;9503;53.560;10.246;2023-02-28T12:37:06;102574.13;;;10.50;49.41
18749;BME280;9503;53.560;10.246;2023-02-28T12:39:36;102577.16;;;10.44;48.90
18749;BME280;9503;53.560;10.246;2023-02-28T12:42:09;102569.72;;;10.81;49.54
18749;BME280;9503;53.560;10.246;2023-02-28T12:44:43;102564.75;;;10.94;47.51
18749;BME280;9503;53.560;10.246;2023-02-28T12:47:14;102557.81;;;10.93;47.67
18749;BME280;9503;53.560;10.246;2023-02-28T12:49:44;102561.44;;;10.30;48.66
18749;BME280;9503;53.560;10.246;2023-02-28T12:52:13;102559.59;;;10.61;49.27
18749;BME280;9503;53.560;10.246;2023-02-28T12:54:44;102556.03;;;10.37;49.29
18749;BME280;9503;53.560;10.246;2023-02-28T12:57:20;102544.38;;;9.98;49.87
18749;BME280;9503;53.560;10.246;2023-02-28T12:59:55;102534.38;;;10.33;49.79
18749;BME280;9503;53.560;10.246;2023-02-28T13:02:45;102535.03;;;10.31;49.15
18749;BME280;9503;53.560;10.246;2023-02-28T13:05:29;102537.66;;;10.10;49.48
18749;BME280;9503;53.560;10.246;2023-02-28T13:08:22;102523.06;;;10.75;49.18
18749;BME280;9503;53.560;10.246;2023-02-28T13:10:53;102529.66;;;10.49;48.88
18749;BME280;9503;53.560;10.246;2023-02-28T13:13:22;102528.34;;;10.33;48.73
18749;BME280;9503;53.560;10.246;2023-02-28T13:16:05;102514.19;;;10.16;50.14
18749;BME280;9503;53.560;10.246;2023-02-28T13:18:35;102517.19;;;10.32;49.44
18749;BME280;9503;53.560;10.246;2023-02-28T13:21:03;102521.25;;;10.40;48.54
18749;BME280;9503;53.560;10.246;2023-02-28T13:23:41;102526.03;;;10.04;48.80
18749;BME280;9503;53.560;10.246;2023-02-28T13:29:31;102516.72;;;10.26;48.84
18749;BME280;9503;53.560;10.246;2023-02-28T13:32:20;102517.91;;;10.41;49.23
18749;BME280;9503;53.560;10.246;2023-02-28T13:38:24;102517.19;;;10.32;47.96
18749;BME280;9503;53.560;10.246;2023-02-28T13:40:51;102516.09;;;10.29;47.54
18749;BME280;9503;53.560;10.246;2023-02-28T13:43:18;102515.41;;;10.53;47.79
18749;BME280;9503;53.560;10.246;2023-02-28T13:46:06;102515.41;;;10.53;47.21
18749;BME280;9503;53.560;10.246;2023-02-28T13:48:36;102525.78;;;10.55;47.69
18749;BME280;9503;53.560;10.246;2023-02-28T13:51:28;102527.09;;;10.49;48.02
18749;BME280;9503;53.560;10.246;2023-02-28T13:54:00;102522.97;;;10.73;47.13
18749;BME280;9503;53.560;10.246;2023-02-28T13:56:39;102527.00;;;10.82;47.67
18749;BME280;9503;53.560;10.246;2023-02-28T13:59:19;102521.94;;;11.05;46.64
18749;BME280;9503;53.560;10.246;2023-02-28T14:01:56;102522.84;;;11.29;45.63
18749;BME280;9503;53.560;10.246;2023-02-28T14:05:01;102520.06;;;11.26;45.46
18749;BME280;9503;53.560;10.246;2023-02-28T14:07:32;102525.34;;;11.62;45.41
18749;BME280;9503;53.560;10.246;2023-02-28T14:10:03;102525.63;;;11.20;44.96
18749;BME280;9503;53.560;10.246;2023-02-28T14:12:55;102526.53;;;11.21;45.08
18749;BME280;9503;53.560;10.246;2023-02-28T14:15:50;102519.72;;;11.21;46.59
18749;BME280;9503;53.560;10.246;2023-02-28T14:18:31;102529.91;;;12.02;44.80
18749;BME280;9503;53.560;10.246;2023-02-28T14:21:07;102525.22;;;12.69;43.74
18749;BME280;9503;53.560;10.246;2023-02-28T14:23:47;102531.75;;;13.80;40.58
18749;BME280;9503;53.560;10.246;2023-02-28T14:26:29;102540.28;;;13.79;40.73
18749;BME280;9503;53.560;10.246;2023-02-28T14:29:13;102522.53;;;13.71;38.77
18749;BME280;9503;53.560;10.246;2023-02-28T14:31:47;102519.78;;;14.22;39.06
18749;BME280;9503;53.560;10.246;2023-02-28T14:34:30;102527.66;;;14.38;40.17
18749;BME280;9503;53.560;10.246;2023-02-28T14:37:03;102531.28;;;14.27;38.12
18749;BME280;9503;53.560;10.246;2023-02-28T14:39:33;102524.22;;;13.44;40.88
18749;BME280;9503;53.560;10.246;2023-02-28T14:42:02;102529.38;;;12.67;40.37
18749;BME280;9503;53.560;10.246;2023-02-28T14:44:30;102523.06;;;13.14;39.64
18749;BME280;9503;53.560;10.246;2023-02-28T14:46:59;102524.97;;;14.09;38.48
18749;BME280;9503;53.560;10.246;2023-02-28T14:49:30;102522.66;;;13.46;39.11
18749;BME280;9503;53.560;10.246;2023-02-28T14:52:13;102520.75;;;13.05;40.03
18749;BME280;9503;53.560;10.246;2023-02-28T14:54:41;102522.50;;;12.80;40.15
18749;BME280;9503;53.560;10.246;2023-02-28T14:57:21;102526.50;;;13.79;39.83
18749;BME280;9503;53.560;10.246;2023-02-28T14:59:57;102523.88;;;14.47;39.63
18749;BME280;9503;53.560;10.246;2023-02-28T15:02:25;102517.38;;;12.93;40.14
18749;BME280;9503;53.560;10.246;2023-02-28T15:04:53;102513.41;;;13.76;40.00
18749;BME280;9503;53.560;10.246;2023-02-28T15:07:22;102511.63;;;13.35;40.33
18749;BME280;9503;53.560;10.246;2023-02-28T15:10:16;102517.63;;;14.02;39.65
18749;BME280;9503;53.560;10.246;2023-02-28T15:12:51;102510.63;;;15.13;39.20
18749;BME280;9503;53.560;10.246;2023-02-28T15:15:20;102510.78;;;15.60;37.84
18749;BME280;9503;53.560;10.246;2023-02-28T15:17:50;102510.06;;;15.78;37.79
18749;BME280;9503;53.560;10.246;2023-02-28T15:20:19;102502.84;;;14.69;38.61
18749;BME280;9503;53.560;10.246;2023-02-28T15:22:49;102506.28;;;15.12;37.88
18749;BME280;9503;53.560;10.246;2023-02-28T15:25:20;102496.72;;;15.40;38.56
18749;BME280;9503;53.560;10.246;2023-02-28T15:27:49;102495.69;;;15.37;38.72
18749;BME280;9503;53.560;10.246;2023-02-28T15:30:19;102495.88;;;14.53;39.74
18749;BME280;9503;53.560;10.246;2023-02-28T15:33:03;102489.25;;;13.34;41.76
18749;BME280;9503;53.560;10.246;2023-02-28T15:35:32;102481.41;;;14.42;40.76
18749;BME280;9503;53.560;10.246;2023-02-28T15:38:02;102484.19;;;15.02;40.37
18749;BME280;9503;53.560;10.246;2023-02-28T15:40:32;102481.31;;;14.98;39.83
18749;BME280;9503;53.560;10.246;2023-02-28T15:43:06;102477.53;;;14.76;40.37
18749;BME280;9503;53.560;10.246;2023-02-28T15:45:40;102484.63;;;14.80;39.51
18749;BME280;9503;53.560;10.246;2023-02-28T15:48:15;102480.31;;;14.10;40.10
18749;BME280;9503;53.560;10.246;2023-02-28T15:50:44;102477.47;;;12.61;41.50
18749;BME280;9503;53.560;10.246;2023-02-28T15:53:18;102471.44;;;13.12;41.83
18749;BME280;9503;53.560;10.246;2023-02-28T15:55:52;102471.34;;;13.11;41.43
18749;BME280;9503;53.560;10.246;2023-02-28T15:58:21;102473.88;;;12.84;42.17
18749;BME280;9503;53.560;10.246;2023-02-28T16:01:01;102466.28;;;12.86;41.90
18749;BME280;9503;53.560;10.246;2023-02-28T16:03:38;102468.47;;;12.93;41.82
18749;BME280;9503;53.560;10.246;2023-02-28T16:06:37;102470.25;;;12.94;41.90
18749;BME280;9503;53.560;10.246;2023-02-28T16:09:06;102476.38;;;11.96;43.77
18749;BME280;9503;53.560;10.246;2023-02-28T16:11:37;102464.34;;;11.72;44.27
18749;BME280;9503;53.560;10.246;2023-02-28T16:14:06;102462.44;;;11.22;44.11
18749;BME280;9503;53.560;10.246;2023-02-28T16:16:33;102467.94;;;11.27;45.62
18749;BME280;9503;53.560;10.246;2023-02-28T16:19:00;102462.88;;;10.93;45.57
18749;BME280;9503;53.560;10.246;2023-02-28T16:21:27;102464.75;;;10.72;45.64
18749;BME280;9503;53.560;10.246;2023-02-28T16:23:53;102468.97;;;10.38;46.92
18749;BME280;9503;53.560;10.246;2023-02-28T16:26:23;102481.56;;;9.81;47.85
18749;BME280;9503;53.560;10.246;2023-02-28T16:28:53;102479.03;;;9.29;49.19
18749;BME280;9503;53.560;10.246;2023-02-28T16:31:20;102480.25;;;8.92;49.76
18749;BME280;9503;53.560;10.246;2023-02-28T16:33:47;102478.81;;;8.65;50.47
18749;BME280;9503;53.560;10.246;2023-02-28T16:36:16;102471.78;;;8.42;52.51
18749;BME280;9503;53.560;10.246;2023-02-28T16:38:43;102480.22;;;8.01;53.67
18749;BME280;9503;53.560;10.246;2023-02-28T16:41:12;102482.19;;;7.56;55.13
18749;BME280;9503;53.560;10.246;2023-02-28T16:43:46;102483.28;;;7.20;56.49
18749;BME280;9503;53.560;10.246;2023-02-28T16:46:14;102474.50;;;6.89;58.03
18749;BME280;9503;53.560;10.246;2023-02-28T16:48:41;102476.66;;;6.57;59.13
18749;BME280;9503;53.560;10.246;2023-02-28T16:51:12;102479.53;;;6.24;60.74
18749;BME280;9503;53.560;10.246;2023-02-28T16:53:38;102481.28;;;5.98;62.68
18749;BME280;9503;53.560;10.246;2023-02-28T16:56:06;102480.25;;;5.70;64.23
18749;BME280;9503;53.560;10.246;2023-02-28T16:58:33;102486.88;;;5.33;65.86
18749;BME280;9503;53.560;10.246;2023-02-28T17:01:02;102489.13;;;5.13;67.76
18749;BME280;9503;53.560;10.246;2023-02-28T17:03:29;102488.97;;;4.85;70.90
18749;BME280;9503;53.560;10.246;2023-02-28T17:05:56;102493.13;;;4.76;71.65
18749;BME280;9503;53.560;10.246;2023-02-28T17:08:22;102488.63;;;4.65;72.93
18749;BME280;9503;53.560;10.246;2023-02-28T17:10:49;102496.03;;;4.55;74.38
18749;BME280;9503;53.560;10.246;2023-02-28T17:13:16;102500.19;;;4.37;75.52
18749;BME280;9503;53.560;10.246;2023-02-28T17:15:44;102501.44;;;4.16;77.32
18749;BME280;9503;53.560;10.246;2023-02-28T17:18:14;102505.91;;;3.85;78.52
18749;BME280;9503;53.560;10.246;2023-02-28T17:20:41;102505.97;;;3.70;80.22
18749;BME280;9503;53.560;10.246;2023-02-28T17:23:08;102512.63;;;3.45;80.15
18749;BME280;9503;53.560;10.246;2023-02-28T17:25:35;102507.84;;;3.23;81.63
18749;BME280;9503;53.560;10.246;2023-02-28T17:28:02;102513.72;;;3.15;83.11
18749;BME280;9503;53.560;10.246;2023-02-28T17:30:28;102506.63;;;3.04;84.58
18749;BME280;9503;53.560;10.246;2023-02-28T17:32:55;102512.44;;;2.87;84.62
18749;BME280;9503;53.560;10.246;2023-02-28T17:35:23;102513.03;;;2.62;85.40
18749;BME280;9503;53.560;10.246;2023-02-28T17:37:52;102517.06;;;2.37;85.35
18749;BME280;9503;53.560;10.246;2023-02-28T17:40:20;102517.41;;;2.17;86.78
18749;BME280;9503;53.560;10.246;2023-02-28T17:42:47;102512.81;;;2.06;87.98
18749;BME280;9503;53.560;10.246;2023-02-28T17:45:14;102514.81;;;2.01;90.45
18749;BME280;9503;53.560;10.246;2023-02-28T17:47:43;102517.59;;;1.88;91.94
18749;BME280;9503;53.560;10.246;2023-02-28T17:50:14;102520.78;;;1.72;92.65
18749;BME280;9503;53.560;10.246;2023-02-28T17:52:43;102516.09;;;1.67;93.82
18749;BME280;9503;53.560;10.246;2023-02-28T17:55:10;102519.13;;;1.49;95.13
18749;BME280;9503;53.560;10.246;2023-02-28T17:57:37;102513.97;;;1.33;94.96
